<?xml version="1.0" encoding="UTF-8" standalone="no" ?>
<gpx xmlns="http://www.topografix.com/GPX/1/1" xmlns:xsi="http://www.w3.org/2001/XMLSchema-instance" xsi:schemaLocation="http://www.topografix.com/GPX/1/1 http://www.topografix.com/GPX/1/1/gpx.xsd" version="1.1" creator="VisuGPX - https://www.visugpx.com">
  <metadata>
    <name>13851116-RS Noël</name>
  </metadata>
  <trk>
    <name><![CDATA[13851116-RS Noël]]></name>
    <trkseg>
      <trkpt lat="45.6534" lon="4.37927">
        <ele>567</ele>
        <time>2021-10-21T04:38:11Z</time>
      </trkpt>
      <trkpt lat="45.6534" lon="4.37936">
        <ele>567</ele>
        <time>2021-10-21T04:38:19Z</time>
      </trkpt>
      <trkpt lat="45.65331" lon="4.37977">
        <ele>568</ele>
        <time>2021-10-21T04:38:59Z</time>
      </trkpt>
      <trkpt lat="45.65326" lon="4.38">
        <ele>568</ele>
        <time>2021-10-21T04:39:22Z</time>
      </trkpt>
      <trkpt lat="45.65318" lon="4.38024">
        <ele>567</ele>
        <time>2021-10-21T04:39:47Z</time>
      </trkpt>
      <trkpt lat="45.65282" lon="4.38102">
        <ele>564</ele>
        <time>2021-10-21T04:41:14Z</time>
      </trkpt>
      <trkpt lat="45.65269" lon="4.38127">
        <ele>563</ele>
        <time>2021-10-21T04:41:43Z</time>
      </trkpt>
      <trkpt lat="45.6522" lon="4.38198">
        <ele>563</ele>
        <time>2021-10-21T04:43:16Z</time>
      </trkpt>
      <trkpt lat="45.65195" lon="4.38193">
        <ele>563</ele>
        <time>2021-10-21T04:43:50Z</time>
      </trkpt>
      <trkpt lat="45.65146" lon="4.38207">
        <ele>559</ele>
        <time>2021-10-21T04:44:56Z</time>
      </trkpt>
      <trkpt lat="45.65131" lon="4.3822">
        <ele>557</ele>
        <time>2021-10-21T04:45:20Z</time>
      </trkpt>
      <trkpt lat="45.65119" lon="4.38233">
        <ele>556</ele>
        <time>2021-10-21T04:45:40Z</time>
      </trkpt>
      <trkpt lat="45.65103" lon="4.38263">
        <ele>556</ele>
        <time>2021-10-21T04:46:15Z</time>
      </trkpt>
      <trkpt lat="45.65079" lon="4.38293">
        <ele>556</ele>
        <time>2021-10-21T04:46:58Z</time>
      </trkpt>
      <trkpt lat="45.6507" lon="4.38308">
        <ele>557</ele>
        <time>2021-10-21T04:47:16Z</time>
      </trkpt>
      <trkpt lat="45.65059" lon="4.38341">
        <ele>559</ele>
        <time>2021-10-21T04:47:50Z</time>
      </trkpt>
      <trkpt lat="45.65042" lon="4.38421">
        <ele>562</ele>
        <time>2021-10-21T04:49:08Z</time>
      </trkpt>
      <trkpt lat="45.65024" lon="4.38456">
        <ele>561</ele>
        <time>2021-10-21T04:49:49Z</time>
      </trkpt>
      <trkpt lat="45.6501" lon="4.385">
        <ele>560</ele>
        <time>2021-10-21T04:50:34Z</time>
      </trkpt>
      <trkpt lat="45.64992" lon="4.38575">
        <ele>562</ele>
        <time>2021-10-21T04:51:48Z</time>
      </trkpt>
      <trkpt lat="45.64991" lon="4.38592">
        <ele>562</ele>
        <time>2021-10-21T04:52:04Z</time>
      </trkpt>
      <trkpt lat="45.65006" lon="4.3866">
        <ele>562</ele>
        <time>2021-10-21T04:53:10Z</time>
      </trkpt>
      <trkpt lat="45.65005" lon="4.38667">
        <ele>562</ele>
        <time>2021-10-21T04:53:17Z</time>
      </trkpt>
      <trkpt lat="45.64985" lon="4.38696">
        <ele>564</ele>
        <time>2021-10-21T04:53:55Z</time>
      </trkpt>
      <trkpt lat="45.64977" lon="4.38713">
        <ele>566</ele>
        <time>2021-10-21T04:54:14Z</time>
      </trkpt>
      <trkpt lat="45.64953" lon="4.38745">
        <ele>570</ele>
        <time>2021-10-21T04:54:58Z</time>
      </trkpt>
      <trkpt lat="45.64942" lon="4.38758">
        <ele>571</ele>
        <time>2021-10-21T04:55:17Z</time>
      </trkpt>
      <trkpt lat="45.64925" lon="4.3877">
        <ele>574</ele>
        <time>2021-10-21T04:55:42Z</time>
      </trkpt>
      <trkpt lat="45.64921" lon="4.38786">
        <ele>575</ele>
        <time>2021-10-21T04:55:58Z</time>
      </trkpt>
      <trkpt lat="45.64911" lon="4.38786">
        <ele>576</ele>
        <time>2021-10-21T04:56:11Z</time>
      </trkpt>
      <trkpt lat="45.64839" lon="4.3881">
        <ele>580</ele>
        <time>2021-10-21T04:57:50Z</time>
      </trkpt>
      <trkpt lat="45.64825" lon="4.38821">
        <ele>582</ele>
        <time>2021-10-21T04:58:11Z</time>
      </trkpt>
      <trkpt lat="45.64807" lon="4.38845">
        <ele>585</ele>
        <time>2021-10-21T04:58:44Z</time>
      </trkpt>
      <trkpt lat="45.64775" lon="4.38864">
        <ele>590</ele>
        <time>2021-10-21T04:59:30Z</time>
      </trkpt>
      <trkpt lat="45.64763" lon="4.38862">
        <ele>591</ele>
        <time>2021-10-21T04:59:47Z</time>
      </trkpt>
      <trkpt lat="45.64734" lon="4.38841">
        <ele>591</ele>
        <time>2021-10-21T05:00:30Z</time>
      </trkpt>
      <trkpt lat="45.64723" lon="4.38842">
        <ele>593</ele>
        <time>2021-10-21T05:00:45Z</time>
      </trkpt>
      <trkpt lat="45.6462" lon="4.38874">
        <ele>603</ele>
        <time>2021-10-21T05:03:05Z</time>
      </trkpt>
      <trkpt lat="45.64609" lon="4.38873">
        <ele>603</ele>
        <time>2021-10-21T05:03:20Z</time>
      </trkpt>
      <trkpt lat="45.6452" lon="4.38918">
        <ele>608</ele>
        <time>2021-10-21T05:05:26Z</time>
      </trkpt>
      <trkpt lat="45.6452" lon="4.38954">
        <ele>609</ele>
        <time>2021-10-21T05:06:00Z</time>
      </trkpt>
      <trkpt lat="45.64529" lon="4.38956">
        <ele>609</ele>
        <time>2021-10-21T05:06:12Z</time>
      </trkpt>
      <trkpt lat="45.6458" lon="4.39105">
        <ele>617</ele>
        <time>2021-10-21T05:08:46Z</time>
      </trkpt>
      <trkpt lat="45.64605" lon="4.39187">
        <ele>621</ele>
        <time>2021-10-21T05:10:10Z</time>
      </trkpt>
      <trkpt lat="45.64631" lon="4.39285">
        <ele>620</ele>
        <time>2021-10-21T05:11:48Z</time>
      </trkpt>
      <trkpt lat="45.64604" lon="4.39345">
        <ele>620</ele>
        <time>2021-10-21T05:12:54Z</time>
      </trkpt>
      <trkpt lat="45.64577" lon="4.39374">
        <ele>621</ele>
        <time>2021-10-21T05:13:39Z</time>
      </trkpt>
      <trkpt lat="45.64537" lon="4.39426">
        <ele>620</ele>
        <time>2021-10-21T05:14:51Z</time>
      </trkpt>
      <trkpt lat="45.64521" lon="4.39457">
        <ele>620</ele>
        <time>2021-10-21T05:15:27Z</time>
      </trkpt>
      <trkpt lat="45.64483" lon="4.39556">
        <ele>620</ele>
        <time>2021-10-21T05:17:13Z</time>
      </trkpt>
      <trkpt lat="45.64458" lon="4.39623">
        <ele>621</ele>
        <time>2021-10-21T05:18:24Z</time>
      </trkpt>
      <trkpt lat="45.64445" lon="4.39619">
        <ele>622</ele>
        <time>2021-10-21T05:18:41Z</time>
      </trkpt>
      <trkpt lat="45.64442" lon="4.3966">
        <ele>622</ele>
        <time>2021-10-21T05:19:20Z</time>
      </trkpt>
      <trkpt lat="45.6441" lon="4.39658">
        <ele>623</ele>
        <time>2021-10-21T05:20:03Z</time>
      </trkpt>
      <trkpt lat="45.6441" lon="4.39674">
        <ele>623</ele>
        <time>2021-10-21T05:20:17Z</time>
      </trkpt>
      <trkpt lat="45.64416" lon="4.39687">
        <ele>624</ele>
        <time>2021-10-21T05:20:32Z</time>
      </trkpt>
      <trkpt lat="45.64413" lon="4.39724">
        <ele>624</ele>
        <time>2021-10-21T05:21:07Z</time>
      </trkpt>
      <trkpt lat="45.64418" lon="4.39725">
        <ele>624</ele>
        <time>2021-10-21T05:21:13Z</time>
      </trkpt>
      <trkpt lat="45.64391" lon="4.39799">
        <ele>625</ele>
        <time>2021-10-21T05:22:31Z</time>
      </trkpt>
      <trkpt lat="45.64376" lon="4.39838">
        <ele>624</ele>
        <time>2021-10-21T05:23:13Z</time>
      </trkpt>
      <trkpt lat="45.64358" lon="4.39871">
        <ele>623</ele>
        <time>2021-10-21T05:23:52Z</time>
      </trkpt>
      <trkpt lat="45.64342" lon="4.39912">
        <ele>621</ele>
        <time>2021-10-21T05:24:36Z</time>
      </trkpt>
      <trkpt lat="45.64338" lon="4.39925">
        <ele>620</ele>
        <time>2021-10-21T05:24:49Z</time>
      </trkpt>
      <trkpt lat="45.64336" lon="4.39941">
        <ele>619</ele>
        <time>2021-10-21T05:25:04Z</time>
      </trkpt>
      <trkpt lat="45.64334" lon="4.39968">
        <ele>616</ele>
        <time>2021-10-21T05:25:29Z</time>
      </trkpt>
      <trkpt lat="45.64336" lon="4.39993">
        <ele>615</ele>
        <time>2021-10-21T05:25:53Z</time>
      </trkpt>
      <trkpt lat="45.64345" lon="4.4004">
        <ele>614</ele>
        <time>2021-10-21T05:26:38Z</time>
      </trkpt>
      <trkpt lat="45.64343" lon="4.40059">
        <ele>613</ele>
        <time>2021-10-21T05:26:56Z</time>
      </trkpt>
      <trkpt lat="45.64332" lon="4.40079">
        <ele>611</ele>
        <time>2021-10-21T05:27:20Z</time>
      </trkpt>
      <trkpt lat="45.64288" lon="4.40111">
        <ele>610</ele>
        <time>2021-10-21T05:28:26Z</time>
      </trkpt>
      <trkpt lat="45.64144" lon="4.40236">
        <ele>610</ele>
        <time>2021-10-21T05:32:11Z</time>
      </trkpt>
      <trkpt lat="45.64094" lon="4.40272">
        <ele>610</ele>
        <time>2021-10-21T05:33:25Z</time>
      </trkpt>
      <trkpt lat="45.64071" lon="4.40292">
        <ele>610</ele>
        <time>2021-10-21T05:34:01Z</time>
      </trkpt>
      <trkpt lat="45.64038" lon="4.40307">
        <ele>608</ele>
        <time>2021-10-21T05:34:48Z</time>
      </trkpt>
      <trkpt lat="45.63995" lon="4.40334">
        <ele>606</ele>
        <time>2021-10-21T05:35:50Z</time>
      </trkpt>
      <trkpt lat="45.6398" lon="4.40351">
        <ele>604</ele>
        <time>2021-10-21T05:36:16Z</time>
      </trkpt>
      <trkpt lat="45.63962" lon="4.4039">
        <ele>601</ele>
        <time>2021-10-21T05:36:59Z</time>
      </trkpt>
      <trkpt lat="45.63893" lon="4.4059">
        <ele>585</ele>
        <time>2021-10-21T05:40:27Z</time>
      </trkpt>
      <trkpt lat="45.6387" lon="4.4064">
        <ele>580</ele>
        <time>2021-10-21T05:41:23Z</time>
      </trkpt>
      <trkpt lat="45.63842" lon="4.40614">
        <ele>578</ele>
        <time>2021-10-21T05:42:08Z</time>
      </trkpt>
      <trkpt lat="45.63826" lon="4.40591">
        <ele>577</ele>
        <time>2021-10-21T05:42:38Z</time>
      </trkpt>
      <trkpt lat="45.63818" lon="4.40571">
        <ele>576</ele>
        <time>2021-10-21T05:43:00Z</time>
      </trkpt>
      <trkpt lat="45.63808" lon="4.40513">
        <ele>574</ele>
        <time>2021-10-21T05:43:55Z</time>
      </trkpt>
      <trkpt lat="45.63796" lon="4.40495">
        <ele>572</ele>
        <time>2021-10-21T05:44:19Z</time>
      </trkpt>
      <trkpt lat="45.63784" lon="4.40487">
        <ele>571</ele>
        <time>2021-10-21T05:44:36Z</time>
      </trkpt>
      <trkpt lat="45.63777" lon="4.40478">
        <ele>570</ele>
        <time>2021-10-21T05:44:49Z</time>
      </trkpt>
      <trkpt lat="45.63777" lon="4.40464">
        <ele>571</ele>
        <time>2021-10-21T05:45:02Z</time>
      </trkpt>
      <trkpt lat="45.63793" lon="4.40382">
        <ele>574</ele>
        <time>2021-10-21T05:46:21Z</time>
      </trkpt>
      <trkpt lat="45.63798" lon="4.40351">
        <ele>574</ele>
        <time>2021-10-21T05:46:51Z</time>
      </trkpt>
      <trkpt lat="45.63802" lon="4.40332">
        <ele>574</ele>
        <time>2021-10-21T05:47:10Z</time>
      </trkpt>
      <trkpt lat="45.63869" lon="4.4021">
        <ele>579</ele>
        <time>2021-10-21T05:49:34Z</time>
      </trkpt>
      <trkpt lat="45.63875" lon="4.4019">
        <ele>579</ele>
        <time>2021-10-21T05:49:55Z</time>
      </trkpt>
      <trkpt lat="45.63878" lon="4.4017">
        <ele>579</ele>
        <time>2021-10-21T05:50:14Z</time>
      </trkpt>
      <trkpt lat="45.63877" lon="4.40016">
        <ele>592</ele>
        <time>2021-10-21T05:52:37Z</time>
      </trkpt>
      <trkpt lat="45.63885" lon="4.39996">
        <ele>593</ele>
        <time>2021-10-21T05:52:59Z</time>
      </trkpt>
      <trkpt lat="45.63898" lon="4.39971">
        <ele>595</ele>
        <time>2021-10-21T05:53:28Z</time>
      </trkpt>
      <trkpt lat="45.639" lon="4.39959">
        <ele>595</ele>
        <time>2021-10-21T05:53:39Z</time>
      </trkpt>
      <trkpt lat="45.6391" lon="4.39937">
        <ele>596</ele>
        <time>2021-10-21T05:54:04Z</time>
      </trkpt>
      <trkpt lat="45.63924" lon="4.39892">
        <ele>601</ele>
        <time>2021-10-21T05:54:50Z</time>
      </trkpt>
      <trkpt lat="45.63923" lon="4.39877">
        <ele>602</ele>
        <time>2021-10-21T05:55:04Z</time>
      </trkpt>
      <trkpt lat="45.63917" lon="4.39861">
        <ele>604</ele>
        <time>2021-10-21T05:55:21Z</time>
      </trkpt>
      <trkpt lat="45.63886" lon="4.39814">
        <ele>606</ele>
        <time>2021-10-21T05:56:21Z</time>
      </trkpt>
      <trkpt lat="45.63858" lon="4.39679">
        <ele>613</ele>
        <time>2021-10-21T05:58:33Z</time>
      </trkpt>
      <trkpt lat="45.63846" lon="4.39633">
        <ele>615</ele>
        <time>2021-10-21T05:59:18Z</time>
      </trkpt>
      <trkpt lat="45.63835" lon="4.39602">
        <ele>617</ele>
        <time>2021-10-21T05:59:51Z</time>
      </trkpt>
      <trkpt lat="45.63831" lon="4.39565">
        <ele>620</ele>
        <time>2021-10-21T06:00:26Z</time>
      </trkpt>
      <trkpt lat="45.63824" lon="4.39548">
        <ele>622</ele>
        <time>2021-10-21T06:00:44Z</time>
      </trkpt>
      <trkpt lat="45.63809" lon="4.39556">
        <ele>621</ele>
        <time>2021-10-21T06:01:05Z</time>
      </trkpt>
      <trkpt lat="45.63813" lon="4.39469">
        <ele>626</ele>
        <time>2021-10-21T06:02:27Z</time>
      </trkpt>
      <trkpt lat="45.63818" lon="4.39451">
        <ele>626</ele>
        <time>2021-10-21T06:02:45Z</time>
      </trkpt>
      <trkpt lat="45.63826" lon="4.39404">
        <ele>626</ele>
        <time>2021-10-21T06:03:30Z</time>
      </trkpt>
    </trkseg>
  </trk>
</gpx>